createdAt,value
2022-10-06T00:05:01.825Z,101936.88
2022-10-06T00:10:24.878Z,101951.69
2022-10-06T00:15:48.076Z,101959.38
2022-10-06T00:21:12.551Z,101973.59
2022-10-06T00:26:36.047Z,101986.81
2022-10-06T00:31:59.076Z,102002.66
2022-10-06T00:37:23.575Z,102005.34
2022-10-06T00:42:53.277Z,102016.75
2022-10-06T00:48:20.422Z,102024.63
2022-10-06T00:53:44.848Z,102036.88
2022-10-06T00:59:10.766Z,102039.72
2022-10-06T01:04:35.183Z,102061.66
2022-10-06T01:09:59.708Z,102066.09
2022-10-06T01:15:23.393Z,102084.59
2022-10-06T01:20:49.653Z,102092.56
2022-10-06T01:26:14.713Z,102108.34
2022-10-06T01:31:38.044Z,102110.13
2022-10-06T01:37:01.443Z,102109.38
2022-10-06T01:42:26.133Z,102112.81
2022-10-06T01:47:49.328Z,102122.50
2022-10-06T01:53:12.482Z,102143.44
2022-10-06T01:58:37.188Z,102148.75
2022-10-06T02:04:00.619Z,102146.13
2022-10-06T02:09:24.415Z,102158.38
2022-10-06T02:14:51.277Z,102162.91
2022-10-06T02:20:14.616Z,102177.72
2022-10-06T02:25:37.713Z,102182.00
2022-10-06T02:31:03.555Z,102186.56
2022-10-06T02:36:26.838Z,102204.94
2022-10-06T02:41:50.212Z,102219.81
2022-10-06T02:47:16.004Z,102225.84
2022-10-06T02:52:42.636Z,102232.84
2022-10-06T02:58:07.036Z,102243.34
2022-10-06T03:03:32.927Z,102256.34
2022-10-06T03:08:57.461Z,102254.66
2022-10-06T03:14:22.206Z,102276.56
2022-10-06T03:19:47.821Z,102287.06
2022-10-06T03:25:11.389Z,102282.75
2022-10-06T03:30:36.222Z,102294.97
2022-10-06T03:36:02.448Z,102294.13
2022-10-06T03:41:27.884Z,102301.22
2022-10-06T03:46:51.314Z,102317.72
2022-10-06T03:52:16.535Z,102321.25
2022-10-06T03:57:39.918Z,102336.22
2022-10-06T04:03:03.041Z,102343.09
2022-10-06T04:08:28.636Z,102358.03
2022-10-06T04:13:53.930Z,102358.91
2022-10-06T04:19:19.783Z,102354.59
2022-10-06T04:24:47.774Z,102368.53
2022-10-06T04:30:12.143Z,102385.88
2022-10-06T04:35:36.772Z,102400.75
2022-10-06T04:41:06.993Z,102407.75
2022-10-06T04:46:42.763Z,102415.59
2022-10-06T04:52:07.100Z,102419.97
2022-10-06T04:57:34.546Z,102426.09
2022-10-06T05:02:57.683Z,102437.50
2022-10-06T05:08:20.965Z,102417.59
2022-10-06T05:13:46.045Z,102448.00
2022-10-06T05:19:09.419Z,102451.50
2022-10-06T05:24:34.618Z,102460.31
2022-10-06T05:29:59.155Z,102462.94
2022-10-06T05:35:22.338Z,102468.19
2022-10-06T05:40:47.731Z,102485.69
2022-10-06T05:46:17.349Z,102491.03
2022-10-06T05:51:43.978Z,102504.03
2022-10-06T05:57:18.350Z,102510.13
2022-10-06T06:02:42.906Z,102513.75
2022-10-06T06:08:08.200Z,102524.13
2022-10-06T06:13:31.616Z,102530.25
2022-10-06T06:19:04.717Z,102541.63
2022-10-06T06:24:27.980Z,102555.59
2022-10-06T06:29:51.252Z,102562.50
2022-10-06T06:35:16.024Z,102567.63
2022-10-06T06:40:41.723Z,102575.31
2022-10-06T06:46:06.144Z,102576.00
2022-10-06T06:51:49.561Z,102586.25
2022-10-06T06:57:14.614Z,102596.00
2022-10-06T07:02:37.828Z,102602.25
2022-10-06T07:08:02.581Z,102612.69
2022-10-06T07:13:25.891Z,102621.41
2022-10-06T07:19:06.846Z,102628.41
2022-10-06T07:24:51.127Z,102631.09
2022-10-06T07:30:18.895Z,102653.03
2022-10-06T07:35:45.720Z,102667.06
2022-10-06T07:41:19.233Z,102672.31
2022-10-06T07:46:47.178Z,102679.34
2022-10-06T07:52:14.312Z,102681.91
2022-10-06T07:57:39.046Z,102683.59
2022-10-06T08:03:02.219Z,102690.63
2022-10-06T08:08:25.633Z,102694.03
2022-10-06T08:13:51.884Z,102708.88
2022-10-06T08:19:17.086Z,102708.84
2022-10-06T08:25:04.241Z,102715.56
2022-10-06T08:30:27.184Z,102727.72
2022-10-06T08:35:51.595Z,102727.91
2022-10-06T08:41:19.368Z,102743.00
2022-10-06T08:46:50.155Z,102752.66
2022-10-06T08:52:21.900Z,102750.75
2022-10-06T08:57:53.991Z,102754.28
2022-10-06T09:03:23.951Z,102756.97
2022-10-06T09:08:53.884Z,102768.16
2022-10-06T09:14:21.764Z,102774.28
2022-10-06T09:19:47.626Z,102781.34
2022-10-06T09:25:16.571Z,102784.38
2022-10-06T09:30:42.871Z,102779.44
2022-10-06T09:36:10.052Z,102776.41
2022-10-06T09:41:40.004Z,102791.72
2022-10-06T09:47:03.117Z,102795.56
2022-10-06T09:52:27.622Z,102789.13
2022-10-06T09:57:52.067Z,102789.44
2022-10-06T10:03:16.020Z,102799.72
2022-10-06T10:08:41.181Z,102790.84
2022-10-06T10:14:04.665Z,102798.41
2022-10-06T10:19:34.474Z,102794.63
2022-10-06T10:25:07.879Z,102805.84
2022-10-06T10:30:32.574Z,102811.97
2022-10-06T10:35:56.932Z,102805.00
2022-10-06T10:41:24.630Z,102811.22
2022-10-06T10:46:50.669Z,102817.59
2022-10-06T10:52:16.787Z,102817.66
2022-10-06T10:57:43.305Z,102821.81
2022-10-06T11:03:10.666Z,102838.47
2022-10-06T11:08:43.258Z,102840.97
2022-10-06T11:14:18.245Z,102839.06
2022-10-06T11:19:50.323Z,102830.31
2022-10-06T11:25:23.023Z,102836.69
2022-10-06T11:30:58.211Z,102847.94
2022-10-06T11:36:34.555Z,102847.19
2022-10-06T11:42:04.140Z,102855.00
2022-10-06T11:47:35.364Z,102856.13
2022-10-06T11:52:59.301Z,102853.22
2022-10-06T11:58:41.457Z,102851.09
2022-10-06T12:04:14.481Z,102858.28
2022-10-06T12:09:52.001Z,102859.94
2022-10-06T12:21:45.991Z,102849.63
2022-10-06T12:27:26.404Z,102847.78
2022-10-06T12:32:52.832Z,102795.69
2022-10-06T12:38:45.693Z,102838.25
2022-10-06T12:44:23.158Z,102838.22
2022-10-06T12:49:52.073Z,102823.38
2022-10-06T12:55:29.721Z,102837.47
2022-10-06T13:00:54.556Z,102831.88
2022-10-06T13:06:21.764Z,102819.75
2022-10-06T13:11:44.895Z,102833.19
2022-10-06T13:17:10.939Z,102833.06
2022-10-06T13:22:35.175Z,102834.75
2022-10-06T13:28:02.294Z,102842.81
2022-10-06T13:33:29.195Z,102832.19
2022-10-06T13:38:53.308Z,102837.63
2022-10-06T13:44:31.207Z,102832.38
2022-10-06T13:50:00.439Z,102837.09
2022-10-06T13:55:25.752Z,102829.41
2022-10-06T14:00:55.909Z,102824.09
2022-10-06T14:06:22.164Z,102840.56
2022-10-06T14:11:46.885Z,102835.34
2022-10-06T14:17:20.752Z,102831.75
2022-10-06T14:22:45.171Z,102824.03
2022-10-06T14:28:09.528Z,102830.13
2022-10-06T14:33:34.014Z,102825.69
2022-10-06T14:38:59.567Z,102811.81
2022-10-06T14:44:22.679Z,102818.91
2022-10-06T14:49:45.948Z,102817.16
2022-10-06T14:55:11.085Z,102820.16
2022-10-06T15:00:34.359Z,102823.59
2022-10-06T15:06:19.063Z,102808.72
2022-10-06T15:11:43.519Z,102799.34
2022-10-06T15:17:06.707Z,102811.28
2022-10-06T15:22:32.257Z,102803.69
2022-10-06T15:28:14.129Z,102802.16
2022-10-06T15:33:40.399Z,102800.13
2022-10-06T15:39:06.251Z,102793.22
2022-10-06T15:44:32.591Z,102797.75
2022-10-06T15:49:58.334Z,102782.06
2022-10-06T15:55:21.362Z,102796.91
2022-10-06T16:00:45.847Z,102788.28
2022-10-06T16:06:09.277Z,102800.03
2022-10-06T16:11:32.364Z,102807.22
2022-10-06T16:16:59.849Z,102806.50
2022-10-06T16:22:22.915Z,102804.91
2022-10-06T16:27:46.012Z,102797.16
2022-10-06T16:33:10.536Z,102788.59
2022-10-06T16:38:35.833Z,102782.50
2022-10-06T16:43:59.179Z,102787.91
2022-10-06T16:49:24.498Z,102790.63
2022-10-06T16:54:49.818Z,102788.03
2022-10-06T17:00:13.824Z,102787.19
2022-10-06T17:05:38.760Z,102799.66
2022-10-06T17:11:07.917Z,102798.81
2022-10-06T17:16:33.255Z,102800.41
2022-10-06T17:21:59.827Z,102798.09
2022-10-06T17:27:23.771Z,102787.53
2022-10-06T17:32:47.464Z,102791.84
2022-10-06T17:38:11.935Z,102793.72
2022-10-06T17:43:39.532Z,102787.66
2022-10-06T17:49:05.575Z,102799.06
2022-10-06T17:54:33.524Z,102801.84
2022-10-06T17:59:59.002Z,102808.81
2022-10-06T18:05:22.120Z,102798.19
2022-10-06T18:11:07.094Z,102806.03
2022-10-06T18:16:32.601Z,102801.53
2022-10-06T18:21:57.555Z,102799.81
2022-10-06T18:27:24.066Z,102800.81
2022-10-06T18:38:31.522Z,102789.56
2022-10-06T18:43:56.507Z,102786.16
2022-10-06T18:49:21.021Z,102789.72
2022-10-06T18:54:45.126Z,102794.16
2022-10-06T19:00:10.862Z,102795.13
2022-10-06T19:05:35.166Z,102792.44
2022-10-06T19:11:20.354Z,102793.34
2022-10-06T19:16:44.923Z,102789.84
2022-10-06T19:22:07.994Z,102788.13
2022-10-06T19:27:31.608Z,102783.72
2022-10-06T19:32:56.115Z,102786.41
2022-10-06T19:38:19.312Z,102788.13
2022-10-06T19:43:42.456Z,102787.28
2022-10-06T19:49:08.200Z,102743.56
2022-10-06T19:54:31.278Z,102786.34
2022-10-06T19:59:54.861Z,102775.84
2022-10-06T20:05:19.974Z,102768.00
2022-10-06T20:10:43.206Z,102774.13
2022-10-06T20:16:08.570Z,102787.25
2022-10-06T20:21:35.302Z,102753.19
2022-10-06T20:26:58.385Z,102788.09
2022-10-06T20:32:22.036Z,102789.84
2022-10-06T20:37:46.982Z,102789.84
2022-10-06T20:43:10.213Z,102792.47
2022-10-06T20:48:34.742Z,102790.72
2022-10-06T20:53:59.440Z,102757.47
2022-10-06T20:59:23.937Z,102773.19
2022-10-06T21:04:46.921Z,102766.25
2022-10-06T21:10:11.468Z,102758.41
2022-10-06T21:15:34.575Z,102750.59
2022-10-06T21:21:00.258Z,102748.81
2022-10-06T21:26:26.815Z,102749.69
2022-10-06T21:31:49.890Z,102737.47
2022-10-06T21:37:13.802Z,102746.19
2022-10-06T21:42:38.251Z,102731.34
2022-10-06T21:48:01.340Z,102722.63
2022-10-06T21:53:24.453Z,102728.72
2022-10-06T21:58:51.736Z,102717.38
2022-10-06T22:04:15.893Z,102699.91
2022-10-06T22:09:38.899Z,102703.41
2022-10-06T22:15:03.337Z,102696.44
2022-10-06T22:20:26.361Z,102685.97
2022-10-06T22:25:55.636Z,102689.47
2022-10-06T22:31:25.593Z,102688.56
2022-10-06T22:36:49.055Z,102680.72
2022-10-06T22:42:12.148Z,102668.50
2022-10-06T22:47:36.576Z,102648.44
2022-10-06T22:52:59.609Z,102646.66
2022-10-06T22:58:23.165Z,102651.94
2022-10-06T23:03:48.322Z,102632.75
2022-10-06T23:09:12.846Z,102632.72
2022-10-06T23:14:35.921Z,102636.22
2022-10-06T23:20:00.483Z,102626.59
2022-10-06T23:25:27.127Z,102623.13
2022-10-06T23:30:50.493Z,102614.34
2022-10-06T23:36:15.341Z,102610.00
2022-10-06T23:41:38.551Z,102608.28
2022-10-06T23:47:01.596Z,102606.56
2022-10-06T23:52:26.125Z,102605.66
2022-10-06T23:57:49.987Z,102595.19
